Aérodrome :
LOGIN :

S'inscrire | Disclaimer

   EN    FR    IT 

 










Légende :    VFR   VFR Marginal   IFR   IFR Intensif   IFR Très Intensif
Visi : 
Plafond : 
>= 8 km
>= 3000ft
5 à 8 km
1000 à 3000 ft
1500m à 5 km
500 à 1000 ft
800 à 1500m
200 à 500 ft
< 800m
< 200 ft
Symboles :   Orages  Brouillard  Fortes neiges  Fortes précipitations  Vent > 20 kt
SIGMETs :   Divers  Orages  Givrage  Turbulence  Onde Orograph.  Cendres Volcan.







- Altitude de l'aérodrome : 49 ft
- Code IATA : GLZ


EHGR - Gilze-Rijen Airbase

DERNIER METAR :
  • 231455Z AUTO 24006KT 9999 SCT048 OVC052 14/11 Q1019 BLU

METARs EXPIRÉS :
  • 231425Z AUTO 25007KT 9999 FEW017 BKN050 OVC055 14/11 Q1019 BLU 25005KT 9999 FEW020 SCT030
  • 231402Z AUTO 25007KT 220V300 9999 FEW017 SCT028 BKN048 15/11 Q1019 BLU 25005KT 9999 FEW020 SCT030
  • 231355Z AUTO 25008KT 9999 SCT017 SCT025 BKN031 15/11 Q1019 WHT 25005KT 9999 FEW020 SCT030
  • 231341Z AUTO 25008KT 230V290 9999 FEW022 SCT028 BKN041 14/10 Q1019 BLU 25005KT 9999 FEW020 SCT030
  • 231331Z AUTO 25008KT 230V290 9999 SCT022 BKN026 OVC051 15/11 Q1019 WHT 25005KT 9999 FEW020 SCT030
  • 231329Z AUTO 25008KT 230V300 9999 FEW021 BKN052 BKN057 15/11 Q1019 BLU 25005KT 9999 FEW020 SCT030
  • 231319Z AUTO 26007KT 240V310 9999 FEW019 SCT023 BKN031 14/10 Q1019 WHT 25005KT 9999 FEW020 SCT030
  • 231255Z AUTO 25005KT 220V290 9999 -RA BKN020 BKN026 OVC030 14/10 Q1019 WHT 25005KT 9999 FEW022 SCT035
  • 231231Z AUTO 26008KT 230V290 9999 SCT023 SCT027 BKN041 14/09 Q1019 WHT 25005KT 9999 FEW022 SCT035
  • 231225Z AUTO 26006KT 240V300 9999 FEW025 SCT037 BKN043 14/09 Q1019 BLU 25005KT 9999 FEW022 SCT035

TAF TAF EHGR
Valide du 23 à 13h jusqu'au 24 à 01h UTC


231243Z 2313/2401 26008KT 9999 SCT025 BKN040
BECMG 2316/2318 20008KT SCT012 BKN018
TEMPO 2318/2401 4500 RADZ BKN005 OVC008
PROB40
TEMPO 2323/2401 2500 -DZ SCT003 BKN005
Pas de NOTAMs connus pour ce terrain.



MET'MAP, la Météo Aéronautique d'un coup d'oeil ! - Copyright ORBIFLY Décembre 2007 - Disclaimer

ORBIFLY MET'MAP TEAM :

Programmation & Développement : Alexandra Zaïnal
Conception & Développement : Baudouin d'Aumeries
Co-Programmation & Développement : Marc-Olivier Méhu
Soutien technique & logistique : Manuel Goepfert

Contact : metmap@orbifly.com




SOURCES & CREDITS :

   NOAA